Time;durP1;ratioP1;P1;durP2;ratioP2;P2;SDS_P1;SDS_P2;PMS_P1;PMS_P2;Temp;Humidity;BMP_temperature;BMP_pressure;BME280_temperature;BME280_humidity;BME280_pressure;Samples;Min_cycle;Max_cycle;Signal;HPM_P1;HPM_P2
2023/01/03 00:01:51;;;;;;;46.33;21.25;;;;;;;9.17;65.14;101737.66;4953701;28;20035;-79
2023/01/03 00:04:16;;;;;;;48.65;22.95;;;;;;;9.01;65.24;101740.34;4953579;28;20034;-79
2023/01/03 00:06:51;;;;;;;44.22;22.90;;;;;;;9.13;65.65;101741.44;4953026;28;20027;-79
2023/01/03 00:09:20;;;;;;;37.65;22.55;;;;;;;9.11;65.29;101735.31;4953402;28;20113;-78
2023/01/03 00:14:35;;;;;;;40.63;22.45;;;;;;;9.13;65.39;101739.63;4953223;28;20043;-78
2023/01/03 00:17:02;;;;;;;35.58;21.42;;;;;;;9.15;65.52;101737.72;4952848;28;20051;-80
2023/01/03 00:19:31;;;;;;;34.58;20.00;;;;;;;9.10;65.63;101738.94;4953397;28;20035;-78
2023/01/03 00:21:56;;;;;;;37.85;21.30;;;;;;;9.02;65.59;101725.94;4952914;28;20530;-78
2023/01/03 00:24:22;;;;;;;40.65;21.13;;;;;;;9.07;65.82;101731.94;4935581;28;20133;-79
2023/01/03 00:26:47;;;;;;;32.63;20.15;;;;;;;9.03;65.37;101721.44;4952624;28;20031;-78
2023/01/03 00:29:13;;;;;;;40.88;23.60;;;;;;;8.96;65.61;101714.72;4952709;28;20082;-79
2023/01/03 00:31:39;;;;;;;47.47;23.23;;;;;;;9.01;65.75;101723.38;4952454;28;20501;-80
2023/01/03 00:34:06;;;;;;;40.88;21.52;;;;;;;8.94;65.83;101721.97;4952890;28;20458;-80
2023/01/03 00:36:31;;;;;;;48.05;21.80;;;;;;;8.93;66.14;101725.63;4952820;28;20110;-79
2023/01/03 00:38:57;;;;;;;42.15;24.08;;;;;;;8.84;66.46;101712.75;4952819;28;20070;-80
2023/01/03 00:41:23;;;;;;;49.22;21.95;;;;;;;8.77;66.36;101719.41;4953270;28;20166;-79
2023/01/03 00:43:49;;;;;;;42.78;25.67;;;;;;;8.89;66.24;101713.34;4952642;28;20047;-78
2023/01/03 00:46:16;;;;;;;39.42;23.08;;;;;;;8.73;66.59;101703.50;4938108;28;20027;-81
2023/01/03 00:48:42;;;;;;;47.05;24.02;;;;;;;8.68;66.48;101710.91;4962245;28;20090;-80
2023/01/03 00:51:13;;;;;;;45.92;24.15;;;;;;;8.56;66.89;101705.41;4964846;28;20046;-77
2023/01/03 00:53:40;;;;;;;40.10;22.93;;;;;;;8.44;66.84;101695.34;4955396;28;20087;-77
2023/01/03 00:56:12;;;;;;;43.63;23.88;;;;;;;8.38;67.47;101701.88;4948189;28;20031;-78
2023/01/03 00:58:38;;;;;;;40.35;23.15;;;;;;;8.26;67.80;101694.50;4954048;28;20035;-78
2023/01/03 01:01:13;;;;;;;42.38;24.02;;;;;;;8.36;67.54;101690.41;4952924;28;20067;-78
2023/01/03 01:03:41;;;;;;;36.38;21.20;;;;;;;8.44;67.91;101690.00;4952663;28;20093;-78
2023/01/03 01:06:15;;;;;;;43.35;22.15;;;;;;;8.52;67.88;101693.97;4952683;28;20038;-80
2023/01/03 01:08:41;;;;;;;49.55;24.50;;;;;;;8.52;67.12;101685.06;4952334;28;20059;-79
2023/01/03 01:11:09;;;;;;;39.97;21.48;;;;;;;8.60;67.26;101674.75;4952459;28;20042;-79
2023/01/03 01:13:34;;;;;;;37.30;21.40;;;;;;;8.57;66.75;101667.75;4952694;28;20031;-78
2023/01/03 01:16:12;;;;;;;35.00;21.50;;;;;;;8.60;67.05;101680.13;4952326;28;20036;-78
2023/01/03 01:18:39;;;;;;;38.25;21.33;;;;;;;8.60;66.60;101672.06;4952693;28;20089;-78
2023/01/03 01:21:06;;;;;;;35.90;20.23;;;;;;;8.68;66.94;101680.56;4952127;28;20031;-78
2023/01/03 01:23:33;;;;;;;38.17;19.50;;;;;;;8.75;66.78;101674.75;4952184;28;20093;-78
2023/01/03 01:26:00;;;;;;;34.85;20.98;;;;;;;8.84;66.63;101681.41;4952497;28;20055;-79
2023/01/03 01:28:26;;;;;;;39.53;20.80;;;;;;;8.77;66.28;101656.75;4951876;28;20579;-79
2023/01/03 01:30:51;;;;;;;34.92;20.23;;;;;;;8.92;65.93;101665.75;4955674;28;20110;-79
2023/01/03 01:33:17;;;;;;;36.13;20.98;;;;;;;9.03;65.50;101673.16;4956084;28;20039;-79
2023/01/03 01:35:42;;;;;;;40.58;21.80;;;;;;;9.03;65.46;101662.41;4955945;28;20036;-80
2023/01/03 01:38:08;;;;;;;54.20;30.75;;;;;;;9.08;65.10;101665.72;4956012;28;20510;-79
2023/01/03 01:40:33;;;;;;;37.97;21.33;;;;;;;9.06;64.71;101654.19;4938667;28;20028;-79
2023/01/03 01:46:09;;;;;;;37.38;21.02;;;;;;;9.04;63.98;101653.44;4955919;28;20423;-78
2023/01/03 01:48:34;;;;;;;33.53;18.70;;;;;;;9.05;64.48;101661.38;4955734;28;20327;-79
2023/01/03 01:51:01;;;;;;;42.75;20.52;;;;;;;9.09;64.32;101651.31;4955696;28;20031;-79
2023/01/03 01:53:32;;;;;;;36.80;20.00;;;;;;;9.12;64.19;101660.06;4955631;28;20387;-78
2023/01/03 01:56:19;;;;;;;41.28;21.23;;;;;;;9.13;63.71;101659.13;4955578;28;20024;-78
2023/01/03 01:58:48;;;;;;;49.00;21.35;;;;;;;9.08;64.11;101641.56;4955856;28;20031;-79
2023/01/03 02:01:16;;;;;;;42.33;19.98;;;;;;;9.11;64.04;101644.06;4955211;28;20026;-79
2023/01/03 02:03:45;;;;;;;36.65;18.80;;;;;;;9.11;63.69;101636.84;4955614;28;20032;-79
2023/01/03 02:06:14;;;;;;;35.97;19.20;;;;;;;9.07;63.97;101639.81;4955298;28;20438;-79
2023/01/03 02:08:39;;;;;;;41.35;18.48;;;;;;;9.07;63.75;101631.78;4955205;28;20035;-78
2023/01/03 02:11:23;;;;;;;35.45;18.58;;;;;;;9.08;63.99;101644.25;4955258;28;20023;-79
2023/01/03 02:14:15;;;;;;;36.75;20.58;;;;;;;9.09;63.60;101637.91;4955084;28;20038;-78
2023/01/03 02:16:49;;;;;;;;;;;;;;;9.08;63.67;101634.34;4955595;28;20498;-77
2023/01/03 02:19:29;;;;;;;34.53;17.77;;;;;;;9.05;63.58;101641.75;4954883;28;19918;-79
2023/01/03 02:22:06;;;;;;;33.08;18.38;;;;;;;8.95;63.78;101633.38;4955055;28;20033;-78
2023/01/03 02:25:09;;;;;;;30.38;15.60;;;;;;;8.96;63.30;101647.66;4955272;28;20048;-77
2023/01/03 02:27:53;;;;;;;27.20;17.17;;;;;;;9.04;63.12;101637.31;4955147;28;20046;-77
2023/01/03 02:30:31;;;;;;;31.48;16.65;;;;;;;9.05;63.41;101641.75;4955268;28;20059;-78
2023/01/03 02:33:06;;;;;;;23.17;15.52;;;;;;;9.06;63.11;101647.00;4954829;28;20618;-79
2023/01/03 02:35:34;;;;;;;35.42;15.73;;;;;;;9.09;63.21;101637.91;4955152;28;20542;-79
2023/01/03 02:38:17;;;;;;;29.08;14.23;;;;;;;9.12;62.69;101629.66;4954561;28;20125;-78
2023/01/03 02:40:51;;;;;;;34.08;16.73;;;;;;;9.11;63.17;101639.53;4953480;28;20023;-80
2023/01/03 02:43:41;;;;;;;29.20;17.00;;;;;;;9.10;62.56;101636.97;4957589;28;20110;-80
2023/01/03 02:46:15;;;;;;;25.15;14.25;;;;;;;9.11;62.96;101627.97;4956841;28;20026;-79
2023/01/03 02:48:49;;;;;;;21.88;14.82;;;;;;;9.07;62.85;101626.41;4954443;28;20023;-80
2023/01/03 02:51:38;;;;;;;27.10;14.43;;;;;;;9.17;62.49;101627.59;4954287;28;20027;-78
2023/01/03 02:54:07;;;;;;;23.95;13.82;;;;;;;9.21;62.44;101621.06;4954580;28;20031;-78
2023/01/03 02:56:58;;;;;;;25.33;16.02;;;;;;;9.18;62.32;101624.81;4954287;28;20094;-79
2023/01/03 02:59:37;;;;;;;29.67;18.23;;;;;;;9.22;62.53;101628.19;4954222;28;20027;-78
2023/01/03 03:02:04;;;;;;;33.35;18.77;;;;;;;9.11;62.58;101612.69;4954472;28;20119;-78
2023/01/03 03:04:31;;;;;;;26.30;16.80;;;;;;;9.19;62.89;101626.53;4954395;28;20038;-78
2023/01/03 03:07:04;;;;;;;32.35;19.27;;;;;;;9.17;62.82;101622.22;4954175;28;20101;-78
2023/01/03 03:09:30;;;;;;;30.73;18.23;;;;;;;9.27;63.21;101623.38;4954246;28;20027;-79
2023/01/03 03:14:49;;;;;;;33.63;20.80;;;;;;;9.31;62.88;101619.56;4953939;28;20113;-79
2023/01/03 03:17:21;;;;;;;30.98;20.75;;;;;;;9.31;62.71;101619.56;4954059;28;20030;-79
2023/01/03 03:25:46;;;;;;;30.38;19.50;;;;;;;9.30;62.34;101618.69;4953494;28;20066;-78
2023/01/03 03:28:34;;;;;;;30.85;18.50;;;;;;;9.19;62.56;101609.56;4953567;28;20055;-80
2023/01/03 03:31:14;;;;;;;36.63;19.60;;;;;;;9.19;62.40;101612.25;4953808;28;20063;-77
2023/01/03 03:34:06;;;;;;;32.90;20.50;;;;;;;9.23;62.53;101614.66;4953690;28;20050;-80
2023/01/03 03:36:44;;;;;;;33.08;18.80;;;;;;;9.27;62.88;101615.34;4953396;28;20553;-77
2023/01/03 03:44:59;;;;;;;43.03;23.45;;;;;;;9.15;63.21;101619.63;4953933;28;20027;-79
2023/01/03 03:47:50;;;;;;;35.88;21.23;;;;;;;9.20;63.31;101622.03;4953975;28;20069;-78
2023/01/03 03:50:24;;;;;;;42.47;24.02;;;;;;;9.09;62.89;101614.63;4953582;28;20035;-79
2023/01/03 03:52:53;;;;;;;43.50;24.90;;;;;;;9.13;63.67;101618.00;4952839;28;20066;-78
2023/01/03 03:55:51;;;;;;;47.88;27.30;;;;;;;9.16;63.62;101615.13;4953096;28;20422;-78
2023/01/03 03:58:33;;;;;;;50.42;27.00;;;;;;;9.20;64.29;101619.38;4894014;29;20131;-79
2023/01/03 04:01:00;;;;;;;47.15;24.55;;;;;;;9.07;64.22;101618.34;4893747;29;20041;-79
2023/01/03 04:03:26;;;;;;;44.50;26.83;;;;;;;8.99;64.77;101607.22;4893797;29;20045;-78
2023/01/03 04:05:56;;;;;;;47.88;27.42;;;;;;;9.03;64.77;101619.47;4893451;29;20025;-79
2023/01/03 04:08:22;;;;;;;44.33;26.63;;;;;;;9.07;64.90;101621.03;4893880;29;20044;-78
2023/01/03 04:10:48;;;;;;;54.72;27.55;;;;;;;9.11;64.72;101610.03;4893631;29;20515;-78
2023/01/03 04:13:13;;;;;;;57.65;29.00;;;;;;;9.19;64.33;101620.31;4893824;29;20100;-80
2023/01/03 04:15:39;;;;;;;51.55;26.88;;;;;;;9.19;64.72;101623.00;4894073;29;20041;-80
2023/01/03 04:18:04;;;;;;;51.63;26.75;;;;;;;9.19;64.25;101628.38;4893920;29;20037;-81
2023/01/03 04:20:30;;;;;;;56.03;30.42;;;;;;;9.24;64.47;101628.94;4893682;29;20044;-79
2023/01/03 04:22:56;;;;;;;56.85;31.83;;;;;;;9.27;64.61;101623.38;4893588;29;20127;-80
2023/01/03 04:25:21;;;;;;;55.97;32.35;;;;;;;9.17;64.45;101616.88;4893615;29;20064;-81
2023/01/03 04:27:47;;;;;;;46.80;30.70;;;;;;;9.19;64.36;101620.31;4893413;29;20037;-78
2023/01/03 04:30:12;;;;;;;47.72;27.80;;;;;;;9.17;64.68;101616.88;4893770;29;20040;-79
2023/01/03 04:32:38;;;;;;;52.38;28.80;;;;;;;9.24;64.55;101616.38;4894070;29;20036;-81
2023/01/03 04:35:04;;;;;;;43.65;26.58;;;;;;;9.24;64.66;101612.84;4915941;29;20044;-79
2023/01/03 04:37:29;;;;;;;43.38;28.02;;;;;;;9.28;64.08;101620.63;4933965;29;20411;-80
2023/01/03 04:39:55;;;;;;;51.05;27.58;;;;;;;9.26;64.46;101616.31;4935189;29;20096;-79
2023/01/03 04:45:05;;;;;;;51.20;26.58;;;;;;;8.90;64.61;101629.22;4935995;29;20035;-80
2023/01/03 04:47:30;;;;;;;47.60;25.27;;;;;;;8.67;65.10;101626.06;4948737;29;20035;-81
2023/01/03 04:49:55;;;;;;;54.95;28.05;;;;;;;8.65;65.77;101611.84;4956445;29;20027;-79
2023/01/03 04:52:21;;;;;;;43.95;26.90;;;;;;;8.70;65.96;101623.19;4955971;29;20020;-81
2023/01/03 04:54:46;;;;;;;45.13;27.25;;;;;;;8.72;65.99;101615.91;4947004;29;20058;-80
2023/01/03 04:57:12;;;;;;;54.85;27.92;;;;;;;8.83;65.59;101627.84;4938788;29;20032;-80
2023/01/03 04:59:37;;;;;;;51.78;29.00;;;;;;;8.58;65.78;101623.03;4938392;29;20023;-77
2023/01/03 05:02:03;;;;;;;58.25;30.23;;;;;;;8.44;65.98;101614.94;4933573;29;20054;-77
2023/01/03 05:04:29;;;;;;;49.75;30.42;;;;;;;8.40;66.67;101608.00;4932171;29;20110;-78
2023/01/03 05:06:55;;;;;;;60.13;29.58;;;;;;;8.51;66.82;101627.88;4932798;29;20023;-79
2023/01/03 05:09:21;;;;;;;53.65;30.23;;;;;;;8.39;66.93;101612.50;4933150;29;20031;-80
2023/01/03 05:11:46;;;;;;;52.30;29.40;;;;;;;8.45;67.04;101628.22;4933086;29;20111;-81
2023/01/03 05:14:12;;;;;;;66.43;31.70;;;;;;;8.44;67.18;101620.28;4933240;29;20475;-80
2023/01/03 05:16:37;;;;;;;57.58;30.50;;;;;;;8.31;66.71;101614.75;4932828;29;20042;-80
2023/01/03 05:19:03;;;;;;;54.92;33.30;;;;;;;8.37;66.88;101624.25;4932764;29;20395;-81
2023/01/03 05:26:59;;;;;;;54.33;32.65;;;;;;;8.26;67.61;101622.13;4952223;28;20078;-78
2023/01/03 05:29:26;;;;;;;70.00;34.08;;;;;;;8.19;67.92;101615.41;4952655;28;20451;-79
2023/01/03 05:31:52;;;;;;;73.05;37.88;;;;;;;8.23;67.71;101631.22;4952533;28;20508;-80
2023/01/03 05:34:18;;;;;;;73.47;40.97;;;;;;;8.36;68.17;101631.44;4954277;28;20034;-79
2023/01/03 05:36:43;;;;;;;82.80;42.72;;;;;;;8.41;68.27;101636.53;4958810;28;20027;-78
2023/01/03 05:39:09;;;;;;;90.88;48.58;;;;;;;8.43;67.55;101624.78;4952465;28;20157;-82
2023/01/03 05:44:19;;;;;;;110.80;60.15;;;;;;;8.40;67.67;101630.31;4952130;28;20046;-80
2023/01/03 05:46:44;;;;;;;113.60;59.30;;;;;;;8.45;67.39;101633.59;4951825;28;20024;-79
2023/01/03 05:49:10;;;;;;;131.48;67.25;;;;;;;8.46;67.06;101635.34;4951638;28;20445;-80
2023/01/03 05:51:35;;;;;;;142.75;72.35;;;;;;;8.51;67.22;101638.59;4952471;28;20039;-83
2023/01/03 05:54:01;;;;;;;152.77;70.82;;;;;;;8.50;67.59;101631.50;4952497;28;20035;-83
2023/01/03 05:56:26;;;;;;;194.30;82.25;;;;;;;8.57;67.56;101640.94;4951924;28;20490;-81
2023/01/03 05:58:53;;;;;;;148.27;78.15;;;;;;;8.60;67.32;101642.56;4934435;28;20052;-80
2023/01/03 06:01:19;;;;;;;164.43;83.60;;;;;;;8.63;67.07;101632.53;4952049;28;20023;-80
2023/01/03 06:03:45;;;;;;;221.18;85.45;;;;;;;8.53;67.38;101639.38;4951668;28;20023;-81
2023/01/03 06:06:13;;;;;;;196.85;86.40;;;;;;;8.58;67.50;101640.00;4951830;28;20110;-81
2023/01/03 06:08:39;;;;;;;158.93;83.22;;;;;;;8.61;67.05;101638.94;4951728;28;20069;-80
2023/01/03 06:11:15;;;;;;;154.95;83.78;;;;;;;8.55;66.71;101639.31;4951879;28;20399;-80
2023/01/03 06:13:40;;;;;;;162.30;85.03;;;;;;;8.48;66.79;101644.13;4953271;28;20038;-81
2023/01/03 06:19:04;;;;;;;179.00;101.22;;;;;;;8.41;67.05;101637.38;4955062;28;20603;-81
2023/01/03 06:21:29;;;;;;;196.40;101.63;;;;;;;8.37;67.27;101625.13;4954879;28;20028;-81
2023/01/03 06:23:55;;;;;;;209.98;101.53;;;;;;;8.43;66.73;101640.00;4954452;28;20041;-80
2023/01/03 06:26:22;;;;;;;203.65;101.88;;;;;;;8.46;67.52;101643.38;4954707;28;20079;-80
2023/01/03 06:28:48;;;;;;;216.18;98.38;;;;;;;8.54;67.21;101640.25;4955108;28;20055;-80
2023/01/03 06:31:14;;;;;;;193.27;100.15;;;;;;;8.55;67.76;101650.03;4954671;28;20028;-82
2023/01/03 06:33:40;;;;;;;220.32;105.32;;;;;;;8.58;67.46;101634.63;4954191;28;20037;-82
2023/01/03 06:36:13;;;;;;;175.25;96.85;;;;;;;8.67;67.20;101646.66;4955126;28;20035;-80
2023/01/03 06:38:39;;;;;;;170.65;93.75;;;;;;;8.69;67.23;101634.88;4955563;28;20116;-80
2023/01/03 06:41:05;;;;;;;175.90;98.47;;;;;;;8.71;66.84;101632.94;4946918;28;20504;-82
2023/01/03 06:43:31;;;;;;;184.25;100.47;;;;;;;8.70;66.65;101655.38;4954705;28;20062;-82
2023/01/03 06:54:19;;;;;;;177.60;93.60;;;;;;;9.00;66.38;101644.69;4956054;28;20038;-81
2023/01/03 06:56:45;;;;;;;163.50;91.38;;;;;;;9.07;66.36;101654.13;4956428;28;20047;-81
2023/01/03 06:59:10;;;;;;;166.85;86.57;;;;;;;9.20;66.46;101644.34;4953939;28;20410;-82
2023/01/03 07:01:37;;;;;;;171.85;91.57;;;;;;;9.26;66.05;101635.09;4954487;28;20442;-81
2023/01/03 07:04:02;;;;;;;181.55;93.75;;;;;;;9.38;66.83;101647.78;4954430;28;20082;-81
2023/01/03 07:06:28;;;;;;;158.98;91.60;;;;;;;9.44;66.10;101652.78;4954138;28;20023;-80
2023/01/03 07:08:54;;;;;;;184.88;84.35;;;;;;;9.44;65.82;101644.72;4953878;28;20101;-81
2023/01/03 07:11:22;;;;;;;141.38;72.68;;;;;;;9.48;65.90;101622.09;4937044;28;20455;-82
2023/01/03 07:13:58;;;;;;;128.25;69.07;;;;;;;9.74;65.47;101658.09;4953920;28;20035;-83
2023/01/03 07:16:25;;;;;;;140.60;68.80;;;;;;;9.81;65.52;101652.25;4954098;28;20110;-80
2023/01/03 07:18:51;;;;;;;133.43;66.03;;;;;;;9.95;65.29;101650.53;4953949;28;20138;-81
2023/01/03 07:21:16;;;;;;;133.07;63.88;;;;;;;10.09;64.95;101655.94;4953707;28;20031;-80
2023/01/03 07:23:41;;;;;;;120.38;62.70;;;;;;;10.16;64.67;101649.22;4954125;28;20065;-81
2023/01/03 07:26:07;;;;;;;120.07;63.03;;;;;;;10.18;64.65;101660.75;4953422;28;20043;-82
2023/01/03 07:28:33;;;;;;;123.35;58.80;;;;;;;10.25;64.25;101652.19;4953313;28;20066;-83
2023/01/03 07:31:04;;;;;;;111.63;59.83;;;;;;;10.28;64.59;101648.44;4954203;28;20035;-81
2023/01/03 07:33:30;;;;;;;106.80;52.83;;;;;;;10.37;64.33;101655.91;4953727;28;20106;-82
2023/01/03 07:36:07;;;;;;;89.13;50.25;;;;;;;10.50;63.97;101655.97;4954008;28;20114;-81
2023/01/03 07:38:32;;;;;;;92.90;50.90;;;;;;;10.58;63.66;101654.50;4953768;28;20031;-81
2023/01/03 07:41:00;;;;;;;91.38;49.85;;;;;;;10.58;63.45;101657.22;4953441;28;20386;-81
2023/01/03 07:43:38;;;;;;;101.20;53.42;;;;;;;10.61;63.08;101662.38;4953713;28;20035;-81
2023/01/03 07:46:13;;;;;;;101.13;54.60;;;;;;;10.55;63.23;101654.72;4953729;28;20027;-81
2023/01/03 07:48:39;;;;;;;112.70;60.92;;;;;;;10.54;63.45;101652.16;4953919;28;20570;-81
2023/01/03 07:51:06;;;;;;;119.72;64.53;;;;;;;10.49;63.73;101647.03;4953688;29;20031;-80
2023/01/03 07:53:33;;;;;;;144.77;74.53;;;;;;;10.58;63.41;101657.22;4936574;29;20023;-80
2023/01/03 07:56:11;;;;;;;155.18;74.05;;;;;;;10.54;63.40;101658.38;4954568;28;20224;-82
2023/01/03 07:58:36;;;;;;;110.32;60.90;;;;;;;10.63;64.22;101651.53;4953880;28;20070;-80
2023/01/03 08:01:04;;;;;;;119.78;58.92;;;;;;;10.72;63.82;101657.19;4936117;28;20039;-81
2023/01/03 08:03:30;;;;;;;104.18;58.78;;;;;;;10.75;63.32;101640.84;4953461;28;20454;-82
2023/01/03 08:06:03;;;;;;;93.97;51.78;;;;;;;10.86;63.35;101654.44;4936054;29;20126;-80
2023/01/03 08:08:29;;;;;;;105.32;51.28;;;;;;;11.03;62.78;101657.84;4953710;28;20027;-80
2023/01/03 08:13:39;;;;;;;90.80;47.15;;;;;;;11.27;62.09;101662.44;4953121;28;20082;-82
2023/01/03 08:16:09;;;;;;;93.95;45.72;;;;;;;11.44;61.58;101667.53;4945017;28;20042;-82
2023/01/03 08:18:35;;;;;;;90.90;47.83;;;;;;;11.43;62.08;101648.81;4953158;28;20051;-81
2023/01/03 08:21:00;;;;;;;95.53;49.00;;;;;;;11.62;61.37;101654.63;4952895;28;20735;-80
2023/01/03 08:23:25;;;;;;;82.30;48.47;;;;;;;11.76;60.89;101662.66;4953032;28;20062;-82
2023/01/03 08:25:57;;;;;;;92.13;50.88;;;;;;;11.88;61.06;101656.41;4952873;28;20051;-83
2023/01/03 08:28:23;;;;;;;99.93;52.47;;;;;;;11.90;60.43;101649.06;4952656;28;20030;-81
2023/01/03 08:30:49;;;;;;;99.25;52.08;;;;;;;11.99;60.32;101643.03;4952860;28;20039;-81
2023/01/03 08:33:17;;;;;;;110.70;54.55;;;;;;;12.19;60.32;101648.84;4952797;28;20113;-82
2023/01/03 08:35:51;;;;;;;113.22;52.83;;;;;;;12.36;60.00;101649.31;4952813;28;20105;-81
2023/01/03 08:38:27;;;;;;;101.85;53.65;;;;;;;12.52;59.72;101640.97;4952272;28;20038;-81
2023/01/03 08:40:54;;;;;;;106.30;55.20;;;;;;;12.64;58.87;101647.31;4952557;28;20094;-81
2023/01/03 08:43:19;;;;;;;108.38;58.78;;;;;;;12.68;58.97;101630.78;4952262;28;20157;-80
2023/01/03 08:45:47;;;;;;;104.85;56.03;;;;;;;12.87;58.46;101651.88;4953349;28;20130;-81
2023/01/03 08:48:14;;;;;;;105.00;55.60;;;;;;;12.96;58.40;101645.78;4952876;28;20027;-82
2023/01/03 08:50:40;;;;;;;101.15;57.28;;;;;;;13.06;58.22;101642.25;4953184;28;20027;-82
2023/01/03 08:53:06;;;;;;;108.95;54.88;;;;;;;13.11;57.88;101633.00;4952836;28;20027;-81
2023/01/03 08:55:32;;;;;;;91.25;53.75;;;;;;;13.22;57.67;101633.91;4952522;28;20035;-81
2023/01/03 08:57:59;;;;;;;102.28;54.28;;;;;;;13.42;57.75;101632.38;4956402;28;20106;-81
2023/01/03 09:00:25;;;;;;;101.75;57.75;;;;;;;13.50;57.65;101624.53;4973448;28;20039;-81
2023/01/03 09:02:50;;;;;;;106.53;55.95;;;;;;;13.56;57.15;101626.75;4974988;28;20041;-82
2023/01/03 09:05:16;;;;;;;111.10;57.47;;;;;;;13.81;57.16;101620.28;4968493;28;20024;-80
2023/01/03 09:07:42;;;;;;;128.48;60.25;;;;;;;13.87;56.50;101611.69;4955592;28;20042;-81
2023/01/03 09:10:08;;;;;;;96.63;53.72;;;;;;;14.00;56.30;101615.13;4957264;29;20028;-80
2023/01/03 09:12:33;;;;;;;102.60;56.97;;;;;;;14.14;56.09;101602.22;4955699;28;20031;-80
2023/01/03 09:14:59;;;;;;;101.15;54.65;;;;;;;14.32;56.00;101602.56;4953882;28;20023;-80
2023/01/03 09:17:24;;;;;;;101.88;54.35;;;;;;;14.52;55.38;101603.69;4951699;28;20039;-81
2023/01/03 09:19:50;;;;;;;98.72;52.58;;;;;;;14.63;55.13;101600.94;4952071;28;20055;-81
2023/01/03 09:22:15;;;;;;;98.25;50.88;;;;;;;14.69;55.02;101576.91;4951818;28;20482;-81
2023/01/03 09:24:41;;;;;;;87.40;50.58;;;;;;;14.85;54.43;101581.06;4952108;28;20159;-80
2023/01/03 09:27:06;;;;;;;91.70;51.85;;;;;;;14.95;54.32;101580.13;4951908;28;20106;-81
2023/01/03 09:29:32;;;;;;;77.82;48.13;;;;;;;15.16;54.32;101582.88;4952122;28;20054;-80
2023/01/03 09:32:00;;;;;;;83.70;45.08;;;;;;;15.24;53.24;101575.81;4952152;28;20422;-80
2023/01/03 09:34:25;;;;;;;89.25;47.63;;;;;;;15.31;53.28;101559.88;4952218;28;20035;-81
2023/01/03 09:36:51;;;;;;;94.68;47.08;;;;;;;15.51;52.96;101571.72;4951842;28;20404;-81
2023/01/03 09:39:16;;;;;;;76.80;43.67;;;;;;;15.64;52.84;101564.25;4951581;28;20611;-81
2023/01/03 09:41:43;;;;;;;76.63;42.70;;;;;;;15.76;52.43;101565.88;4951812;28;20031;-81
2023/01/03 09:44:09;;;;;;;98.05;44.28;;;;;;;15.79;52.21;101555.63;4951861;28;20038;-81
2023/01/03 09:46:36;;;;;;;83.10;39.15;;;;;;;15.89;52.04;101543.94;4952154;28;20446;-81
2023/01/03 09:49:04;;;;;;;78.65;42.47;;;;;;;15.97;51.76;101553.13;4951913;28;20086;-81
2023/01/03 10:03:43;;;;;;;84.88;44.70;;;;;;;16.40;50.78;101522.09;4955957;28;20118;-82
2023/01/03 10:06:50;;;;;;;80.60;42.38;;;;;;;16.50;50.86;101528.41;4955083;28;20414;-80
2023/01/03 10:09:31;;;;;;;94.03;43.05;;;;;;;16.60;50.38;101526.59;4895966;29;20051;-81
2023/01/03 10:12:15;;;;;;;72.28;40.65;;;;;;;16.59;50.36;101516.72;4897844;29;20055;-81
2023/01/03 10:14:57;;;;;;;74.68;38.45;;;;;;;16.69;50.54;101523.03;4895820;29;20041;-83
2023/01/03 10:17:43;;;;;;;70.25;36.28;;;;;;;16.73;50.27;101516.28;4895596;29;20037;-81
2023/01/03 10:20:23;;;;;;;71.32;37.05;;;;;;;16.83;50.07;101504.44;4896050;29;20045;-81
2023/01/03 10:22:52;;;;;;;61.88;36.83;;;;;;;16.91;50.10;101506.41;4895847;29;20070;-81
2023/01/03 10:25:21;;;;;;;77.85;36.53;;;;;;;16.98;49.83;101495.81;4895532;29;20456;-81
2023/01/03 10:27:56;;;;;;;70.13;36.85;;;;;;;17.07;49.63;101494.94;4895383;29;20123;-81
2023/01/03 10:30:40;;;;;;;66.93;34.10;;;;;;;17.14;49.63;101496.09;4895631;29;20045;-79
2023/01/03 10:33:29;;;;;;;67.55;32.95;;;;;;;17.21;49.50;101487.22;4895254;29;20100;-79
2023/01/03 10:35:56;;;;;;;68.07;34.28;;;;;;;17.23;49.40;101476.19;4895103;29;20560;-82
2023/01/03 10:38:22;;;;;;;59.03;31.63;;;;;;;17.34;49.38;101485.03;4879491;29;20044;-81
2023/01/03 10:40:55;;;;;;;58.08;30.38;;;;;;;17.33;49.32;101475.16;4895118;29;20108;-81
2023/01/03 10:43:44;;;;;;;52.65;29.95;;;;;;;17.43;49.25;101484.13;4896668;29;20037;-82
2023/01/03 10:46:20;;;;;;;68.20;33.03;;;;;;;17.45;49.02;101473.13;4908010;29;20066;-82
2023/01/03 10:48:48;;;;;;;54.75;30.10;;;;;;;17.52;48.86;101463.34;4936089;29;20027;-82
2023/01/03 10:51:34;;;;;;;58.45;31.73;;;;;;;17.68;48.85;101460.00;4936119;29;20090;-81
2023/01/03 10:54:22;;;;;;;74.35;33.70;;;;;;;17.68;48.63;101462.72;4936148;29;20846;-81
2023/01/03 10:56:48;;;;;;;66.40;34.00;;;;;;;17.53;48.75;101442.44;4936175;29;20061;-81
2023/01/03 10:59:16;;;;;;;54.58;32.22;;;;;;;17.70;48.53;101463.47;4941134;29;20027;-81
2023/01/03 11:02:13;;;;;;;81.75;32.75;;;;;;;17.66;48.57;101448.44;4940055;29;20040;-83
2023/01/03 11:04:39;;;;;;;54.45;32.45;;;;;;;17.84;48.49;101452.94;4938274;29;20035;-81
2023/01/03 11:07:08;;;;;;;60.83;30.92;;;;;;;17.83;48.11;101453.91;4935439;29;20799;-82
2023/01/03 11:09:41;;;;;;;62.70;30.73;;;;;;;17.89;48.21;101438.84;4935334;29;20024;-80
2023/01/03 11:12:34;;;;;;;55.55;31.10;;;;;;;18.06;48.29;101440.75;4936199;29;20031;-80
2023/01/03 11:15:02;;;;;;;53.50;27.98;;;;;;;18.14;47.86;101426.38;4877288;29;20041;-80
2023/01/03 11:17:29;;;;;;;58.45;29.27;;;;;;;18.36;47.70;101436.81;4877199;29;20089;-80
2023/01/03 11:19:55;;;;;;;76.70;31.48;;;;;;;18.54;47.23;101425.94;4876692;29;20125;-80
2023/01/03 11:22:51;;;;;;;57.15;29.70;;;;;;;18.74;46.78;101430.22;4877368;29;20041;-81
2023/01/03 11:25:26;;;;;;;85.57;31.77;;;;;;;18.97;46.19;101426.81;4802870;29;20476;-80
2023/01/03 11:28:15;;;;;;;68.30;28.83;;;;;;;19.16;45.58;101425.75;4803021;29;20051;-80
2023/01/03 11:30:56;;;;;;;63.30;29.58;;;;;;;19.34;45.21;101415.63;4803189;29;20130;-80
2023/01/03 11:33:49;;;;;;;69.72;33.80;;;;;;;19.50;44.85;101418.47;4803820;29;20157;-82
2023/01/03 11:36:33;;;;;;;51.50;29.15;;;;;;;19.52;44.57;101421.03;4803371;29;20047;-82
2023/01/03 11:39:18;;;;;;;57.83;27.17;;;;;;;19.61;44.32;101427.38;4803438;29;20038;-81
2023/01/03 11:42:10;;;;;;;51.67;26.55;;;;;;;19.65;44.11;101413.25;4802169;29;20189;-80
2023/01/03 11:44:41;;;;;;;54.58;25.92;;;;;;;19.69;44.14;101411.91;4802160;29;20041;-80
2023/01/03 11:47:21;;;;;;;56.42;26.35;;;;;;;19.68;43.96;101409.34;4802040;29;20042;-81
2023/01/03 11:50:10;;;;;;;40.50;23.85;;;;;;;19.72;43.84;101410.72;4787066;29;20046;-79
2023/01/03 11:52:49;;;;;;;68.25;25.92;;;;;;;19.69;43.86;101417.38;4844520;29;20072;-82
2023/01/03 11:55:23;;;;;;;65.85;23.88;;;;;;;19.73;43.96;101406.94;4850542;29;20045;-82
2023/01/03 11:58:04;;;;;;;52.42;23.30;;;;;;;19.79;43.90;101400.84;4857165;29;20053;-81
2023/01/03 12:00:57;;;;;;;48.47;22.73;;;;;;;19.84;43.80;101398.47;4857338;29;20046;-81
2023/01/03 12:03:31;;;;;;;;;;;;;;;19.89;43.53;101401.56;4951387;28;20051;-80
2023/01/03 12:06:26;;;;;;;54.53;22.38;;;;;;;19.94;43.54;101400.03;4955705;28;19949;-81
2023/01/03 12:09:05;;;;;;;61.05;21.33;;;;;;;19.97;43.36;101396.09;4950556;28;20509;-81
2023/01/03 12:11:33;;;;;;;51.47;22.00;;;;;;;19.89;43.29;101393.38;4953515;28;20114;-81
2023/01/03 12:14:05;;;;;;;51.70;22.45;;;;;;;19.82;44.28;101405.97;4953640;28;20035;-81
2023/01/03 12:16:36;;;;;;;52.05;21.17;;;;;;;19.63;45.66;101395.34;4953251;28;20035;-81
2023/01/03 12:19:06;;;;;;;48.17;22.50;;;;;;;19.42;46.50;101399.31;4953298;28;20038;-81
2023/01/03 12:21:35;;;;;;;42.67;22.38;;;;;;;19.24;47.06;101397.66;4953654;28;20031;-80
2023/01/03 12:24:36;;;;;;;47.63;22.90;;;;;;;18.97;48.18;101396.81;4920421;28;20109;-82
2023/01/03 12:27:14;;;;;;;56.28;24.05;;;;;;;18.68;48.98;101400.88;4874827;29;20041;-81